createdAt,value
2017-08-12T00:00:02.897Z,15.6
2017-08-12T00:05:03.068Z,15.6
2017-08-12T00:10:02.555Z,15.6
2017-08-12T00:15:03.190Z,14.3
2017-08-12T00:20:02.748Z,14.0
2017-08-12T00:25:03.293Z,13.8
2017-08-12T00:30:02.788Z,13.6
2017-08-12T00:35:02.430Z,13.6
2017-08-12T00:40:02.931Z,13.6
2017-08-12T00:45:02.550Z,13.6
2017-08-12T00:50:03.150Z,13.6
2017-08-12T00:55:02.611Z,13.8
2017-08-12T01:00:03.016Z,14.3
2017-08-12T01:05:02.543Z,14.8
2017-08-12T01:10:03.060Z,15.0
2017-08-12T01:15:02.597Z,15.0
2017-08-12T01:20:03.306Z,15.0
2017-08-12T01:25:02.800Z,15.1
2017-08-12T01:30:03.206Z,15.1
2017-08-12T01:35:02.723Z,15.0
2017-08-12T01:40:03.312Z,15.0
2017-08-12T01:45:02.708Z,14.8
2017-08-12T01:50:03.395Z,14.8
2017-08-12T01:55:02.852Z,14.8
2017-08-12T02:00:02.405Z,14.6
2017-08-12T02:05:02.894Z,14.6
2017-08-12T02:10:02.645Z,14.6
2017-08-12T02:15:03.400Z,14.3
2017-08-12T02:20:03.029Z,14.3
2017-08-12T02:25:02.483Z,14.5
2017-08-12T02:30:02.936Z,14.6
2017-08-12T02:35:02.635Z,14.6
2017-08-12T02:40:03.368Z,14.8
2017-08-12T02:45:02.832Z,14.6
2017-08-12T02:50:03.293Z,14.5
2017-08-12T02:55:02.626Z,14.5
2017-08-12T03:00:03.108Z,14.5
2017-08-12T03:05:02.604Z,14.5
2017-08-12T03:10:03.186Z,14.5
2017-08-12T03:15:02.709Z,14.6
2017-08-12T03:20:03.129Z,14.6
2017-08-12T03:25:02.634Z,14.6
2017-08-12T03:30:04.323Z,14.6
2017-08-12T03:35:02.932Z,14.5
2017-08-12T03:40:02.415Z,14.6
2017-08-12T03:45:02.951Z,14.6
2017-08-12T03:50:02.411Z,14.6
2017-08-12T03:55:03.182Z,14.5
2017-08-12T04:00:02.674Z,14.5
2017-08-12T04:05:03.224Z,14.5
2017-08-12T04:10:02.684Z,14.5
2017-08-12T04:15:03.971Z,14.5
2017-08-12T04:20:02.357Z,14.5
2017-08-12T04:25:03.181Z,14.5
2017-08-12T04:30:02.784Z,14.5
2017-08-12T04:35:02.494Z,14.5
2017-08-12T04:40:03.235Z,14.3
2017-08-12T04:45:02.614Z,14.3
2017-08-12T04:50:03.055Z,13.6
2017-08-12T04:55:02.522Z,13.5
2017-08-12T05:00:03.665Z,13.3
2017-08-12T05:05:03.221Z,13.3
2017-08-12T05:10:02.669Z,13.5
2017-08-12T05:15:03.916Z,13.5
2017-08-12T05:20:03.491Z,13.5
2017-08-12T05:25:03.011Z,13.5
2017-08-12T05:30:02.435Z,13.5
2017-08-12T05:35:03.013Z,13.6
2017-08-12T05:40:02.588Z,13.6
2017-08-12T05:45:03.652Z,13.6
2017-08-12T05:50:03.269Z,13.6
2017-08-12T05:55:02.807Z,13.6
2017-08-12T06:00:02.552Z,13.6
2017-08-12T06:05:03.322Z,13.6
2017-08-12T06:10:03.004Z,13.6
2017-08-12T06:15:02.446Z,13.6
2017-08-12T06:20:03.179Z,13.6
2017-08-12T06:25:02.750Z,13.6
2017-08-12T06:30:03.374Z,13.6
2017-08-12T06:35:02.871Z,13.6
2017-08-12T06:40:02.495Z,13.6
2017-08-12T06:45:03.032Z,13.6
2017-08-12T06:50:02.666Z,13.6
2017-08-12T06:55:03.274Z,13.6
2017-08-12T07:00:02.912Z,13.6
2017-08-12T07:05:03.498Z,13.6
2017-08-12T07:10:03.143Z,13.8
2017-08-12T07:15:02.523Z,13.8
2017-08-12T07:20:03.120Z,13.8
2017-08-12T07:25:02.597Z,14.0
2017-08-12T07:30:03.326Z,14.0
2017-08-12T07:35:02.855Z,14.1
2017-08-12T07:40:02.411Z,14.1
2017-08-12T07:45:02.973Z,14.1
2017-08-12T07:50:02.682Z,14.1
2017-08-12T07:55:03.247Z,14.1
2017-08-12T08:00:02.650Z,14.3
2017-08-12T08:05:03.393Z,14.3
2017-08-12T08:10:02.922Z,14.3
2017-08-12T08:15:02.412Z,14.3
2017-08-12T08:20:02.854Z,14.3
2017-08-12T08:25:02.375Z,14.5
2017-08-12T08:30:02.936Z,14.5
2017-08-12T08:35:02.641Z,14.6
2017-08-12T08:40:03.159Z,14.6
2017-08-12T08:45:02.686Z,14.8
2017-08-12T08:50:03.115Z,14.8
2017-08-12T08:55:02.691Z,14.8
2017-08-12T09:00:03.243Z,15.0
2017-08-12T09:05:02.834Z,15.1
2017-08-12T09:10:02.433Z,15.1
2017-08-12T09:15:03.145Z,15.1
2017-08-12T09:20:02.692Z,15.1
2017-08-12T09:25:03.280Z,15.1
2017-08-12T09:30:02.736Z,15.1
2017-08-12T09:35:02.368Z,15.1
2017-08-12T09:40:02.972Z,15.1
2017-08-12T09:45:02.383Z,15.1
2017-08-12T09:50:03.022Z,15.3
2017-08-12T09:55:02.604Z,15.3
2017-08-12T10:00:03.243Z,15.3
2017-08-12T10:05:02.872Z,15.5
2017-08-12T10:10:02.449Z,15.6
2017-08-12T10:15:02.993Z,15.8
2017-08-12T10:20:02.595Z,15.8
2017-08-12T10:25:03.167Z,15.8
2017-08-12T10:30:02.711Z,16.0
2017-08-12T10:35:03.259Z,16.0
2017-08-12T10:40:02.807Z,16.2
2017-08-12T10:45:02.391Z,16.2
2017-08-12T10:50:02.902Z,16.2
2017-08-12T10:55:03.369Z,16.2
2017-08-12T11:00:02.771Z,16.2
2017-08-12T11:05:03.536Z,16.7
2017-08-12T11:10:03.008Z,17.3
2017-08-12T11:15:03.577Z,17.8
2017-08-12T11:20:03.184Z,18.7
2017-08-12T11:25:02.743Z,18.2
2017-08-12T11:30:03.300Z,18.2
2017-08-12T11:35:02.764Z,18.5
2017-08-12T11:40:03.399Z,19.0
2017-08-12T11:45:02.922Z,18.8
2017-08-12T11:50:02.614Z,18.7
2017-08-12T11:55:02.966Z,18.7
2017-08-12T12:00:02.531Z,18.7
2017-08-12T12:05:03.158Z,19.1
2017-08-12T12:10:02.722Z,19.0
2017-08-12T12:15:03.248Z,19.0
2017-08-12T12:20:02.769Z,19.5
2017-08-12T12:25:02.698Z,19.7
2017-08-12T12:30:03.139Z,19.3
2017-08-12T12:35:02.741Z,19.3
2017-08-12T12:40:03.233Z,19.2
2017-08-12T12:45:02.674Z,19.0
2017-08-12T12:50:03.126Z,19.0
2017-08-12T12:55:02.692Z,19.2
2017-08-12T13:00:03.083Z,19.0
2017-08-12T13:05:02.582Z,19.1
2017-08-12T13:10:03.145Z,19.2
2017-08-12T13:15:02.586Z,19.1
2017-08-12T13:20:03.002Z,19.7
2017-08-12T13:25:02.585Z,19.5
2017-08-12T13:30:03.157Z,19.5
2017-08-12T13:35:02.932Z,19.3
2017-08-12T13:40:02.387Z,19.1
2017-08-12T13:45:02.854Z,19.3
2017-08-12T13:50:03.352Z,19.7
2017-08-12T13:55:02.737Z,20.0
2017-08-12T14:00:03.372Z,20.2
2017-08-12T14:05:03.003Z,20.8
2017-08-12T14:10:02.641Z,22.1
2017-08-12T14:15:03.104Z,21.2
2017-08-12T14:20:02.586Z,20.7
2017-08-12T14:25:03.104Z,22.2
2017-08-12T14:30:02.597Z,22.1
2017-08-12T14:35:03.209Z,20.8
2017-08-12T14:40:02.797Z,22.3
2017-08-12T14:45:03.353Z,22.7
2017-08-12T14:50:02.788Z,23.2
2017-08-12T14:54:04.866Z,22.0
2017-08-12T14:55:03.368Z,22.0
2017-08-12T15:00:02.906Z,21.6
2017-08-12T15:05:02.387Z,21.8
2017-08-12T15:10:02.891Z,22.3
2017-08-12T15:15:02.424Z,20.7
2017-08-12T15:20:03.122Z,20.7
2017-08-12T15:25:02.554Z,22.0
2017-08-12T15:35:02.712Z,22.0
2017-08-12T15:40:03.330Z,22.5
2017-08-12T15:45:02.701Z,21.7
2017-08-12T15:50:03.293Z,21.2
2017-08-12T15:55:02.861Z,20.8
2017-08-12T16:00:02.422Z,20.7
2017-08-12T16:05:02.875Z,20.7
2017-08-12T16:10:02.464Z,20.2
2017-08-12T16:15:02.998Z,17.7
2017-08-12T16:20:02.426Z,17.7
2017-08-12T16:25:02.895Z,17.3
2017-08-12T16:30:02.507Z,17.3
2017-08-12T16:35:03.109Z,17.5
2017-08-12T16:40:02.718Z,17.5
2017-08-12T16:45:03.152Z,17.5
2017-08-12T16:50:02.585Z,18.2
2017-08-12T16:55:03.240Z,18.2
2017-08-12T17:00:02.665Z,18.1
2017-08-12T17:05:03.317Z,19.0
2017-08-12T17:10:02.956Z,18.6
2017-08-12T17:15:02.392Z,19.2
2017-08-12T17:20:03.088Z,18.2
2017-08-12T17:25:02.671Z,17.5
2017-08-12T17:30:03.423Z,17.5
2017-08-12T17:35:02.922Z,17.3
2017-08-12T17:40:02.516Z,17.1
2017-08-12T17:45:03.222Z,17.1
2017-08-12T17:50:02.621Z,17.0
2017-08-12T17:55:03.180Z,17.2
2017-08-12T18:00:02.757Z,17.2
2017-08-12T18:05:03.374Z,17.2
2017-08-12T18:10:02.962Z,17.3
2017-08-12T18:15:02.540Z,17.2
2017-08-12T18:20:03.140Z,17.3
2017-08-12T18:25:02.589Z,17.5
2017-08-12T18:30:03.298Z,18.2
2017-08-12T18:35:02.849Z,18.7
2017-08-12T18:40:02.406Z,18.8
2017-08-12T18:45:03.155Z,19.0
2017-08-12T18:50:02.609Z,19.0
2017-08-12T18:55:03.044Z,18.8
2017-08-12T19:00:02.501Z,18.8
2017-08-12T19:05:03.149Z,18.8
2017-08-12T19:10:02.741Z,18.7
2017-08-12T19:15:03.127Z,18.7
2017-08-12T19:20:02.599Z,18.6
2017-08-12T19:25:03.162Z,18.6
2017-08-12T19:30:02.714Z,18.6
2017-08-12T19:35:03.401Z,18.6
2017-08-12T19:40:03.237Z,18.6
2017-08-12T19:45:02.727Z,18.6
2017-08-12T19:55:03.126Z,18.5
2017-08-12T20:00:02.510Z,18.5
2017-08-12T20:05:03.151Z,18.2
2017-08-12T20:10:02.739Z,18.2
2017-08-12T20:15:03.291Z,18.1
2017-08-12T20:20:02.814Z,18.1
2017-08-12T20:25:02.559Z,17.8
2017-08-12T20:30:03.161Z,17.8
2017-08-12T20:35:02.749Z,17.7
2017-08-12T20:45:03.191Z,17.7
2017-08-12T20:50:02.598Z,17.5
2017-08-12T20:55:03.037Z,17.3
2017-08-12T21:00:02.754Z,17.3
2017-08-12T21:05:03.366Z,17.0
2017-08-12T21:10:03.013Z,17.0
2017-08-12T21:15:02.460Z,16.7
2017-08-12T21:20:03.050Z,16.7
2017-08-12T21:25:02.459Z,16.7
2017-08-12T21:30:03.313Z,16.7
2017-08-12T21:35:02.801Z,16.7
2017-08-12T21:40:03.333Z,16.6
2017-08-12T21:45:02.804Z,16.3
2017-08-12T21:50:03.364Z,16.3
2017-08-12T21:55:02.736Z,16.3
2017-08-12T22:00:03.322Z,16.6
2017-08-12T22:05:02.767Z,16.3
2017-08-12T22:10:02.506Z,16.2
2017-08-12T22:15:02.906Z,16.2
2017-08-12T22:20:02.606Z,16.0
2017-08-12T22:25:03.168Z,16.2
2017-08-12T22:30:02.580Z,16.2
2017-08-12T22:35:03.113Z,16.2
2017-08-12T22:40:02.718Z,16.2
2017-08-12T22:45:03.333Z,15.8
2017-08-12T22:50:02.755Z,15.8
2017-08-12T22:55:02.393Z,15.8
2017-08-12T23:00:03.230Z,15.8
2017-08-12T23:05:02.488Z,15.6
2017-08-12T23:10:03.241Z,15.8
2017-08-12T23:15:02.682Z,15.8
2017-08-12T23:20:03.298Z,15.8
2017-08-12T23:25:02.762Z,15.8
2017-08-12T23:30:03.165Z,15.5
2017-08-12T23:35:02.687Z,15.6
2017-08-12T23:40:03.438Z,15.6
2017-08-12T23:45:02.867Z,15.6
2017-08-12T23:50:02.403Z,15.6
2017-08-12T23:55:02.854Z,15.6
